Time;durP1;ratioP1;P1;durP2;ratioP2;P2;SDS_P1;SDS_P2;PMS_P1;PMS_P2;Temp;Humidity;BMP_temperature;BMP_pressure;BME280_temperature;BME280_humidity;BME280_pressure;Samples;Min_cycle;Max_cycle;Signal;HPM_P1;HPM_P2
2023/10/03 04:09:42;;;;;;;0.30;0.20;;;14.60;99.90;;;;;;5052493;28;20526;-61
2023/10/03 04:12:08;;;;;;;0.30;0.30;;;14.70;99.90;;;;;;5053573;28;20414;-59
2023/10/03 04:14:33;;;;;;;0.40;0.40;;;14.80;99.90;;;;;;5053129;28;20562;-61
2023/10/03 04:16:59;;;;;;;0.30;0.20;;;14.80;99.90;;;;;;5053298;28;20181;-61
2023/10/03 04:19:24;;;;;;;0.40;0.40;;;14.90;99.90;;;;;;5053072;28;20177;-59
2023/10/03 04:21:50;;;;;;;0.50;0.50;;;14.90;99.90;;;;;;5053799;28;20177;-60
2023/10/03 04:24:16;;;;;;;0.30;0.30;;;14.90;99.90;;;;;;5053269;28;20196;-60
2023/10/03 04:26:42;;;;;;;0.30;0.27;;;14.90;99.90;;;;;;5053626;28;20213;-60
2023/10/03 04:29:13;;;;;;;0.33;0.33;;;14.90;99.90;;;;;;5053452;28;20415;-61
2023/10/03 04:31:40;;;;;;;0.30;0.30;;;14.90;99.90;;;;;;5053583;28;20405;-60
2023/10/03 04:34:07;;;;;;;0.40;0.40;;;14.90;99.90;;;;;;5052918;28;20435;-61
2023/10/03 04:36:34;;;;;;;0.40;0.40;;;14.90;99.90;;;;;;5052563;28;20431;-62
2023/10/03 04:39:01;;;;;;;0.50;0.50;;;14.90;99.90;;;;;;5053290;28;20415;-61
2023/10/03 04:41:28;;;;;;;0.30;0.30;;;14.90;99.90;;;;;;5053455;28;20410;-58
2023/10/03 04:43:55;;;;;;;0.30;0.30;;;15.00;99.90;;;;;;5052989;28;20828;-62
2023/10/03 04:46:21;;;;;;;0.30;0.30;;;15.00;99.90;;;;;;5052986;28;20916;-60
2023/10/03 04:48:47;;;;;;;0.30;0.27;;;15.00;99.90;;;;;;5053096;28;20408;-60
2023/10/03 04:51:16;;;;;;;0.30;0.20;;;15.10;99.90;;;;;;5053391;28;20713;-61
2023/10/03 04:53:41;;;;;;;0.30;0.20;;;15.10;99.90;;;;;;5052980;28;20179;-62
2023/10/03 04:56:07;;;;;;;0.30;0.30;;;15.20;99.90;;;;;;5053147;28;20432;-62
2023/10/03 04:58:32;;;;;;;0.40;0.40;;;15.20;99.90;;;;;;5053223;28;20231;-60
2023/10/03 05:00:58;;;;;;;0.40;0.40;;;15.30;99.90;;;;;;5052457;28;20256;-61
2023/10/03 05:03:24;;;;;;;0.30;0.30;;;15.40;99.90;;;;;;5053231;28;20631;-59
2023/10/03 05:05:52;;;;;;;0.30;0.20;;;15.40;99.90;;;;;;5052707;28;20247;-61
2023/10/03 05:08:18;;;;;;;0.30;0.30;;;15.60;99.90;;;;;;5061403;28;20496;-60
2023/10/03 05:10:43;;;;;;;0.30;0.30;;;15.70;99.90;;;;;;5073191;28;20385;-60
2023/10/03 05:13:10;;;;;;;0.90;0.57;;;15.90;99.90;;;;;;5072940;28;20732;-60
2023/10/03 05:15:35;;;;;;;0.30;0.30;;;16.00;99.90;;;;;;5072482;28;20194;-62
2023/10/03 05:18:03;;;;;;;0.50;0.50;;;16.20;99.90;;;;;;5072945;28;20406;-62
2023/10/03 05:20:37;;;;;;;0.30;0.30;;;16.30;99.90;;;;;;5073109;28;20527;-61
2023/10/03 05:23:04;;;;;;;0.30;0.30;;;16.40;99.90;;;;;;5072813;28;20422;-60
2023/10/03 05:25:30;;;;;;;0.97;0.97;;;16.40;99.90;;;;;;5075099;28;20511;-62
2023/10/03 05:27:56;;;;;;;0.30;0.20;;;16.50;99.90;;;;;;5076468;28;20374;-62
2023/10/03 05:30:23;;;;;;;0.30;0.30;;;16.50;99.90;;;;;;5076635;28;20382;-60
2023/10/03 05:32:48;;;;;;;0.53;0.53;;;16.40;99.90;;;;;;5076794;28;20254;-62
2023/10/03 05:35:14;;;;;;;0.30;0.30;;;16.40;99.90;;;;;;5076396;28;20459;-61
2023/10/03 05:37:40;;;;;;;2.30;0.60;;;16.50;99.90;;;;;;5076785;28;20177;-62
2023/10/03 05:40:18;;;;;;;0.40;0.40;;;16.50;99.90;;;;;;5076472;28;20226;-61
2023/10/03 05:42:45;;;;;;;0.30;0.30;;;16.50;99.90;;;;;;5076759;28;20411;-62
2023/10/03 05:45:18;;;;;;;0.60;0.50;;;16.50;99.90;;;;;;5075056;28;20509;-62
2023/10/03 05:47:45;;;;;;;0.50;0.50;;;16.40;99.90;;;;;;5076255;28;20468;-61
2023/10/03 05:50:22;;;;;;;0.40;0.40;;;16.40;99.90;;;;;;5076792;28;20462;-61
2023/10/03 05:52:48;;;;;;;0.30;0.30;;;16.40;99.90;;;;;;5076384;28;20414;-61
2023/10/03 05:55:14;;;;;;;0.40;0.40;;;16.40;99.90;;;;;;5075646;28;20505;-63
2023/10/03 05:57:42;;;;;;;1.60;0.57;;;16.50;99.90;;;;;;5076256;28;20890;-63
2023/10/03 06:00:22;;;;;;;0.30;0.30;;;16.60;99.90;;;;;;5075888;28;20396;-61
2023/10/03 06:02:47;;;;;;;0.40;0.40;;;16.60;99.90;;;;;;5076121;28;20383;-61
2023/10/03 06:05:15;;;;;;;0.40;0.40;;;16.70;99.90;;;;;;5075563;28;20423;-60
2023/10/03 06:07:41;;;;;;;0.30;0.30;;;16.80;99.90;;;;;;5075981;28;20641;-62
2023/10/03 06:10:10;;;;;;;0.30;0.30;;;16.90;99.90;;;;;;5076222;28;20400;-60
2023/10/03 06:12:36;;;;;;;0.30;0.30;;;17.00;99.90;;;;;;5076194;28;20368;-62
2023/10/03 06:15:04;;;;;;;0.30;0.30;;;17.20;99.90;;;;;;5074756;28;20911;-62
2023/10/03 06:17:31;;;;;;;0.30;0.30;;;17.40;99.90;;;;;;5075911;28;20474;-62
2023/10/03 06:19:57;;;;;;;1.40;1.30;;;17.60;99.90;;;;;;5075962;28;20388;-60
2023/10/03 06:22:23;;;;;;;0.30;0.30;;;17.90;99.90;;;;;;5057404;28;20469;-62
2023/10/03 06:24:49;;;;;;;0.60;0.60;;;18.20;99.90;;;;;;5075255;28;20197;-63
2023/10/03 06:27:14;;;;;;;0.60;0.60;;;18.40;99.90;;;;;;5057890;28;20228;-60
2023/10/03 06:29:41;;;;;;;0.30;0.27;;;18.60;99.90;;;;;;5075735;28;20450;-61
2023/10/03 06:32:07;;;;;;;0.93;0.93;;;18.90;99.90;;;;;;5075790;28;20187;-62
2023/10/03 06:34:33;;;;;;;0.30;0.30;;;19.20;99.90;;;;;;5057222;28;20381;-64
2023/10/03 06:36:59;;;;;;;1.27;1.27;;;19.50;99.90;;;;;;5074760;28;20405;-61
2023/10/03 06:39:24;;;;;;;0.50;0.50;;;19.70;99.90;;;;;;5075257;28;20398;-61
2023/10/03 06:41:55;;;;;;;0.30;0.30;;;19.90;99.90;;;;;;5075531;28;20381;-63
2023/10/03 06:44:21;;;;;;;0.30;0.30;;;20.10;99.90;;;;;;5057166;28;20173;-62
2023/10/03 06:46:46;;;;;;;0.30;0.20;;;20.20;99.90;;;;;;5075116;28;20449;-60
2023/10/03 06:49:13;;;;;;;0.40;0.40;;;20.30;99.90;;;;;;5075334;28;20415;-62
2023/10/03 06:51:39;;;;;;;0.40;0.40;;;20.50;99.90;;;;;;5074943;28;20185;-61
2023/10/03 06:54:05;;;;;;;0.30;0.30;;;20.80;99.90;;;;;;5074276;28;20549;-63
2023/10/03 06:56:32;;;;;;;0.30;0.30;;;21.00;99.90;;;;;;5075050;28;20200;-61
2023/10/03 06:58:59;;;;;;;0.50;0.50;;;21.40;99.90;;;;;;5074820;28;20242;-62
2023/10/03 07:01:25;;;;;;;0.47;0.47;;;21.90;99.90;;;;;;5057261;28;20954;-61
2023/10/03 07:03:53;;;;;;;0.30;0.20;;;22.40;99.10;;;;;;5074568;28;20440;-62
2023/10/03 07:06:19;;;;;;;1.03;1.03;;;23.00;97.90;;;;;;5075042;28;20224;-62
2023/10/03 07:08:44;;;;;;;0.40;0.40;;;23.70;96.70;;;;;;5056630;28;20932;-62
2023/10/03 07:11:12;;;;;;;0.30;0.30;;;24.50;95.60;;;;;;5074936;28;20280;-62
2023/10/03 07:13:38;;;;;;;0.40;0.40;;;25.30;94.20;;;;;;5074805;28;20416;-63
2023/10/03 07:16:04;;;;;;;0.40;0.40;;;26.00;92.40;;;;;;5074498;28;20427;-62
2023/10/03 07:18:29;;;;;;;0.70;0.57;;;26.80;90.80;;;;;;5074840;28;20180;-62
2023/10/03 07:20:55;;;;;;;0.30;0.30;;;27.40;90.20;;;;;;5074521;28;20200;-64
2023/10/03 07:23:21;;;;;;;0.33;0.30;;;28.10;86.20;;;;;;5074616;28;20260;-62
2023/10/03 07:25:48;;;;;;;0.70;0.43;;;28.80;85.80;;;;;;5074158;28;20542;-63
2023/10/03 07:28:14;;;;;;;0.40;0.40;;;29.40;83.10;;;;;;5074616;28;20173;-64
2023/10/03 07:30:41;;;;;;;0.50;0.50;;;29.80;81.00;;;;;;5074346;28;20408;-62
2023/10/03 07:33:08;;;;;;;3.03;0.77;;;30.10;79.80;;;;;;5074169;28;20452;-63
2023/10/03 07:35:37;;;;;;;0.77;0.70;;;30.40;78.50;;;;;;5055625;28;20443;-63
2023/10/03 07:38:03;;;;;;;0.53;0.53;;;30.70;77.20;;;;;;5074154;28;20426;-62
2023/10/03 07:40:28;;;;;;;0.93;0.93;;;31.10;76.40;;;;;;5074387;28;20382;-63
2023/10/03 07:42:54;;;;;;;0.63;0.63;;;31.40;75.70;;;;;;5074344;28;20181;-65
2023/10/03 07:45:19;;;;;;;0.57;0.57;;;31.60;73.80;;;;;;5073639;28;20246;-62
2023/10/03 07:47:46;;;;;;;0.60;0.60;;;31.60;73.50;;;;;;5073467;28;20599;-64
2023/10/03 07:50:13;;;;;;;0.70;0.70;;;31.60;72.60;;;;;;5073697;28;20169;-60
2023/10/03 07:52:39;;;;;;;1.80;0.87;;;31.70;73.20;;;;;;5073378;28;20999;-64
2023/10/03 07:55:05;;;;;;;0.30;0.20;;;31.80;72.80;;;;;;5073616;28;20434;-61
2023/10/03 07:57:31;;;;;;;0.83;0.83;;;32.00;71.20;;;;;;5074062;28;20490;-62
2023/10/03 07:59:57;;;;;;;0.40;0.40;;;32.10;70.40;;;;;;5073918;28;20967;-61
2023/10/03 08:02:32;;;;;;;0.60;0.60;;;32.40;70.90;;;;;;5073888;28;20173;-63
2023/10/03 08:05:00;;;;;;;0.50;0.40;;;32.80;69.50;;;;;;5073359;28;20283;-60
2023/10/03 08:07:27;;;;;;;1.27;0.93;;;33.10;68.30;;;;;;5073910;28;20827;-64
2023/10/03 08:09:53;;;;;;;0.73;0.73;;;33.20;67.00;;;;;;5074212;28;20414;-60
2023/10/03 08:12:25;;;;;;;0.40;0.37;;;33.20;65.80;;;;;;5073941;28;20402;-64
2023/10/03 08:14:52;;;;;;;0.30;0.30;;;33.10;66.40;;;;;;5073504;28;20844;-64
2023/10/03 08:17:31;;;;;;;1.00;1.00;;;33.20;66.00;;;;;;5073773;28;20415;-61
2023/10/03 08:19:56;;;;;;;2.43;2.30;;;33.60;66.50;;;;;;5073182;28;20414;-64
2023/10/03 08:22:22;;;;;;;0.60;0.60;;;34.00;65.90;;;;;;5055853;28;20754;-64
2023/10/03 08:24:48;;;;;;;0.80;0.70;;;34.40;65.40;;;;;;5073123;28;20658;-61
2023/10/03 08:27:18;;;;;;;0.70;0.70;;;34.80;63.70;;;;;;5073439;28;20204;-65
2023/10/03 08:29:50;;;;;;;0.73;0.73;;;35.00;63.10;;;;;;5073240;28;20176;-61
2023/10/03 08:32:17;;;;;;;0.50;0.40;;;35.10;61.10;;;;;;5073306;28;20917;-65
2023/10/03 08:34:44;;;;;;;0.77;0.77;;;35.40;61.30;;;;;;5072787;28;20490;-64
2023/10/03 08:37:18;;;;;;;1.07;1.07;;;35.60;60.70;;;;;;5073193;28;20450;-64
2023/10/03 08:39:46;;;;;;;0.60;0.60;;;36.20;61.20;;;;;;5073092;28;20801;-64
2023/10/03 08:42:34;;;;;;;0.60;0.60;;;36.60;59.20;;;;;;5073201;28;20927;-64
2023/10/03 08:45:16;;;;;;;0.83;0.83;;;36.60;58.10;;;;;;5072931;28;20510;-64
2023/10/03 08:47:49;;;;;;;0.50;0.50;;;35.90;58.50;;;;;;5073536;28;20406;-64
2023/10/03 08:50:34;;;;;;;0.80;0.73;;;35.10;59.50;;;;;;5073615;28;20403;-65
2023/10/03 08:53:12;;;;;;;0.63;0.63;;;34.40;60.50;;;;;;5073188;28;20410;-62
2023/10/03 08:55:45;;;;;;;1.13;1.13;;;34.00;61.90;;;;;;5072533;28;20425;-64
2023/10/03 08:58:18;;;;;;;0.50;0.50;;;34.30;62.20;;;;;;5073862;28;20407;-62
2023/10/03 09:00:46;;;;;;;0.63;0.63;;;34.60;62.40;;;;;;5077342;28;20788;-64
2023/10/03 09:03:13;;;;;;;0.60;0.60;;;35.10;61.20;;;;;;5077112;28;20407;-63
2023/10/03 09:05:40;;;;;;;0.60;0.60;;;35.50;59.90;;;;;;5076689;28;21091;-64
2023/10/03 09:08:13;;;;;;;0.50;0.50;;;35.60;59.80;;;;;;5076774;28;20431;-62
2023/10/03 09:10:55;;;;;;;0.50;0.50;;;35.90;59.30;;;;;;5076978;28;20493;-61
2023/10/03 09:13:24;;;;;;;0.60;0.60;;;36.10;58.70;;;;;;5077078;28;20399;-63
2023/10/03 09:15:59;;;;;;;0.60;0.60;;;36.10;58.90;;;;;;5076673;28;20711;-65
2023/10/03 09:18:43;;;;;;;0.63;0.63;;;36.40;58.90;;;;;;5077129;28;20425;-60
2023/10/03 09:21:23;;;;;;;0.63;0.63;;;36.90;58.40;;;;;;5076612;28;20415;-65
2023/10/03 09:24:01;;;;;;;0.70;0.57;;;37.70;58.10;;;;;;5076763;28;20415;-65
2023/10/03 09:26:47;;;;;;;0.40;0.40;;;37.60;58.00;;;;;;5077272;28;20455;-62
2023/10/03 09:29:30;;;;;;;0.67;0.67;;;37.70;57.00;;;;;;5076283;28;20419;-65
2023/10/03 09:32:07;;;;;;;0.57;0.57;;;37.70;56.80;;;;;;5076734;28;20422;-63
2023/10/03 09:34:39;;;;;;;0.50;0.50;;;37.30;56.80;;;;;;5076310;28;20386;-61
2023/10/03 09:37:05;;;;;;;0.80;0.80;;;36.60;57.00;;;;;;5058428;28;20419;-63
2023/10/03 09:39:48;;;;;;;0.67;0.67;;;35.70;57.80;;;;;;5076774;28;20753;-62
2023/10/03 09:42:18;;;;;;;0.60;0.60;;;34.80;58.70;;;;;;5076697;28;20410;-63
2023/10/03 09:44:45;;;;;;;0.43;0.43;;;33.80;60.20;;;;;;5076546;28;20422;-63
2023/10/03 09:47:13;;;;;;;0.50;0.50;;;33.60;61.40;;;;;;5075905;28;20450;-64
2023/10/03 09:49:39;;;;;;;0.70;0.70;;;33.60;61.60;;;;;;5077037;28;20414;-62
2023/10/03 09:52:09;;;;;;;1.03;1.03;;;33.80;62.70;;;;;;5076538;28;20745;-65
2023/10/03 09:54:36;;;;;;;0.80;0.70;;;34.30;63.30;;;;;;5075689;28;20798;-61
2023/10/03 09:57:15;;;;;;;0.60;0.60;;;34.50;60.60;;;;;;5076069;28;20498;-62
2023/10/03 09:59:42;;;;;;;0.60;0.60;;;34.40;60.80;;;;;;5075849;28;20460;-63
2023/10/03 10:02:12;;;;;;;0.57;0.50;;;34.60;61.10;;;;;;5071581;28;20431;-63
2023/10/03 10:04:39;;;;;;;0.77;0.77;;;34.70;60.20;;;;;;5057509;28;20430;-64
2023/10/03 10:07:16;;;;;;;0.40;0.40;;;34.90;60.50;;;;;;5075916;28;20504;-63
2023/10/03 10:09:52;;;;;;;0.80;0.80;;;35.10;60.80;;;;;;5075678;28;20457;-62
2023/10/03 10:12:21;;;;;;;0.50;0.50;;;35.60;59.50;;;;;;5076085;28;20824;-65
2023/10/03 10:15:26;;;;;;;0.50;0.50;;;35.90;59.50;;;;;;5074676;28;20463;-61
2023/10/03 10:17:52;;;;;;;0.80;0.80;;;36.30;58.90;;;;;;5074725;28;20407;-67
2023/10/03 10:20:37;;;;;;;0.70;0.70;;;36.50;58.30;;;;;;5075741;28;20391;-63
2023/10/03 10:23:04;;;;;;;0.70;0.60;;;36.40;58.40;;;;;;5075353;28;20423;-67
2023/10/03 10:25:43;;;;;;;0.40;0.40;;;36.00;58.80;;;;;;5057024;28;20488;-67
2023/10/03 10:28:11;;;;;;;0.73;0.50;;;35.50;59.50;;;;;;5075680;28;20407;-62
2023/10/03 10:30:44;;;;;;;0.60;0.60;;;34.90;60.10;;;;;;5075358;28;20430;-59
2023/10/03 10:33:16;;;;;;;0.50;0.50;;;34.60;61.50;;;;;;5075584;28;20443;-63
2023/10/03 10:36:03;;;;;;;0.50;0.50;;;34.50;61.80;;;;;;5074835;28;20484;-62
2023/10/03 10:38:31;;;;;;;0.50;0.47;;;34.40;62.10;;;;;;5075165;28;20398;-60
2023/10/03 10:41:18;;;;;;;0.40;0.40;;;34.10;62.40;;;;;;5075508;28;20884;-60
2023/10/03 10:44:14;;;;;;;0.57;0.40;;;33.80;62.50;;;;;;5075043;28;20546;-61
2023/10/03 10:46:49;;;;;;;0.40;0.40;;;33.20;63.40;;;;;;5074509;28;20425;-60
2023/10/03 10:49:34;;;;;;;0.70;0.70;;;32.60;65.10;;;;;;5075394;28;20418;-61
2023/10/03 10:52:09;;;;;;;0.50;0.50;;;32.10;66.00;;;;;;5075337;28;20411;-62
2023/10/03 10:54:39;;;;;;;0.57;0.57;;;31.60;66.70;;;;;;5074533;28;20422;-60
2023/10/03 10:57:14;;;;;;;0.40;0.40;;;31.30;68.70;;;;;;5074639;28;20415;-59
2023/10/03 10:59:40;;;;;;;0.60;0.43;;;31.10;68.90;;;;;;5074966;28;20418;-60
2023/10/03 11:02:28;;;;;;;1.27;1.27;;;30.90;69.50;;;;;;5074622;28;20403;-61
2023/10/03 11:04:58;;;;;;;0.47;0.47;;;30.70;70.50;;;;;;5073731;28;20488;-59
2023/10/03 11:07:26;;;;;;;0.87;0.63;;;30.50;71.40;;;;;;5074295;28;20616;-61
2023/10/03 11:09:54;;;;;;;0.40;0.30;;;30.30;72.90;;;;;;5072882;28;20760;-60
2023/10/03 11:12:27;;;;;;;0.47;0.47;;;30.20;72.30;;;;;;5072607;28;21004;-61
2023/10/03 11:14:55;;;;;;;0.50;0.50;;;30.10;73.10;;;;;;5072328;28;20446;-60
2023/10/03 11:17:21;;;;;;;0.40;0.40;;;30.00;73.50;;;;;;5072820;28;20472;-62
2023/10/03 11:19:49;;;;;;;1.17;1.07;;;30.00;73.80;;;;;;5072708;28;20407;-59
2023/10/03 11:22:17;;;;;;;0.53;0.50;;;29.90;73.60;;;;;;5073053;28;20514;-61
2023/10/03 11:24:43;;;;;;;0.40;0.40;;;29.80;74.10;;;;;;5073844;28;20415;-59
2023/10/03 11:27:21;;;;;;;0.30;0.20;;;29.80;74.80;;;;;;5074698;28;20441;-59
2023/10/03 11:29:47;;;;;;;0.50;0.50;;;29.70;74.80;;;;;;5074564;28;20377;-59
2023/10/03 11:32:24;;;;;;;0.30;0.30;;;29.70;75.40;;;;;;5074745;28;20920;-61
2023/10/03 11:34:52;;;;;;;0.40;0.40;;;29.80;76.20;;;;;;5073974;28;20180;-59
2023/10/03 11:37:41;;;;;;;1.00;1.00;;;29.80;76.30;;;;;;5074464;28;20865;-63
2023/10/03 11:40:26;;;;;;;0.40;0.40;;;29.70;76.30;;;;;;5074079;28;20947;-61
2023/10/03 11:43:02;;;;;;;0.60;0.60;;;29.70;76.40;;;;;;5074598;28;20370;-61
2023/10/03 11:45:29;;;;;;;0.47;0.47;;;29.60;77.50;;;;;;5074034;28;20893;-65
2023/10/03 11:48:07;;;;;;;1.13;0.50;;;29.50;77.10;;;;;;5074278;28;20744;-62
2023/10/03 11:50:38;;;;;;;0.30;0.30;;;29.40;77.50;;;;;;5074140;28;20788;-62
2023/10/03 11:53:05;;;;;;;0.53;0.53;;;29.40;77.60;;;;;;5074219;28;20386;-63
2023/10/03 11:55:36;;;;;;;0.50;0.50;;;29.40;78.10;;;;;;5073005;28;20414;-63
2023/10/03 11:58:02;;;;;;;0.60;0.60;;;29.40;78.30;;;;;;5074203;28;20404;-61
2023/10/03 12:00:28;;;;;;;0.40;0.40;;;29.40;78.80;;;;;;5073872;28;20382;-63
2023/10/03 12:02:55;;;;;;;1.23;1.23;;;29.40;78.40;;;;;;5073824;28;20904;-64
2023/10/03 12:05:22;;;;;;;0.50;0.50;;;29.40;78.50;;;;;;5073395;28;20200;-61
2023/10/03 12:07:49;;;;;;;0.37;0.37;;;29.40;78.00;;;;;;5073661;28;20484;-61
2023/10/03 12:10:16;;;;;;;1.23;1.23;;;29.30;78.60;;;;;;5073173;28;20990;-63
2023/10/03 12:12:42;;;;;;;0.50;0.50;;;29.10;78.40;;;;;;5073471;28;20432;-64
2023/10/03 12:15:12;;;;;;;1.90;0.57;;;29.00;78.70;;;;;;5073397;28;20819;-63
2023/10/03 12:17:46;;;;;;;0.60;0.50;;;28.80;79.40;;;;;;5073720;28;20378;-63
2023/10/03 12:20:13;;;;;;;0.30;0.20;;;28.70;79.50;;;;;;5055875;28;20415;-63
2023/10/03 12:22:44;;;;;;;0.60;0.60;;;28.60;80.10;;;;;;5073661;28;20481;-64
2023/10/03 12:25:11;;;;;;;0.40;0.40;;;28.40;79.70;;;;;;5073041;28;20414;-62
2023/10/03 12:27:38;;;;;;;0.50;0.50;;;28.30;80.70;;;;;;5073698;28;20502;-63
2023/10/03 12:30:06;;;;;;;0.30;0.30;;;28.20;81.10;;;;;;5073288;28;20486;-61
2023/10/03 12:32:36;;;;;;;0.50;0.50;;;28.10;81.40;;;;;;5073265;28;20374;-60
2023/10/03 12:35:03;;;;;;;0.30;0.30;;;28.00;81.90;;;;;;5072484;28;20401;-62
2023/10/03 12:37:30;;;;;;;0.33;0.33;;;27.90;81.60;;;;;;5073076;28;20916;-61
2023/10/03 12:40:01;;;;;;;0.40;0.40;;;27.80;82.10;;;;;;5073553;28;20433;-60
2023/10/03 12:42:28;;;;;;;0.33;0.33;;;27.70;82.20;;;;;;5073287;28;20404;-64
2023/10/03 12:44:56;;;;;;;0.40;0.40;;;27.50;82.60;;;;;;5073258;28;20410;-63
2023/10/03 12:47:22;;;;;;;0.57;0.57;;;27.40;82.90;;;;;;5073201;28;20477;-65
2023/10/03 12:49:48;;;;;;;0.53;0.47;;;27.40;83.30;;;;;;5073416;28;20370;-62
2023/10/03 12:52:14;;;;;;;0.30;0.30;;;27.40;83.70;;;;;;5072998;28;20993;-64
2023/10/03 12:54:40;;;;;;;0.50;0.43;;;27.40;83.70;;;;;;5072657;28;20531;-59
2023/10/03 12:57:05;;;;;;;0.70;0.70;;;27.40;83.70;;;;;;5073370;28;20646;-64
2023/10/03 12:59:32;;;;;;;0.90;0.90;;;27.50;83.70;;;;;;5072910;28;20430;-65
2023/10/03 13:01:58;;;;;;;0.40;0.33;;;27.60;83.90;;;;;;5073087;28;20211;-63
2023/10/03 13:04:27;;;;;;;0.40;0.40;;;27.60;83.60;;;;;;5072565;28;20434;-62
2023/10/03 13:06:53;;;;;;;0.30;0.30;;;27.60;83.30;;;;;;5072788;28;20436;-60
2023/10/03 13:09:19;;;;;;;0.40;0.40;;;27.70;83.60;;;;;;5072816;28;20458;-60
2023/10/03 13:11:46;;;;;;;0.30;0.30;;;27.70;82.90;;;;;;5073018;28;20207;-60
2023/10/03 13:14:12;;;;;;;0.30;0.30;;;27.70;82.80;;;;;;5072737;28;20887;-59
2023/10/03 13:16:39;;;;;;;0.63;0.63;;;27.70;83.60;;;;;;5072756;28;20204;-62
2023/10/03 13:19:05;;;;;;;0.50;0.50;;;27.50;85.30;;;;;;5073158;28;20374;-65
2023/10/03 13:21:31;;;;;;;0.40;0.40;;;27.50;84.90;;;;;;5072645;28;20411;-60
2023/10/03 13:23:57;;;;;;;0.30;0.30;;;27.40;84.70;;;;;;5072494;28;20180;-65
2023/10/03 13:26:23;;;;;;;0.50;0.50;;;27.30;85.20;;;;;;5072323;28;20459;-61
2023/10/03 13:28:48;;;;;;;0.60;0.60;;;27.20;85.50;;;;;;5072784;28;20225;-62
2023/10/03 13:31:14;;;;;;;0.60;0.60;;;27.10;85.60;;;;;;5072122;28;20233;-62
2023/10/03 13:33:40;;;;;;;0.50;0.50;;;27.00;86.80;;;;;;5071641;28;20512;-62
2023/10/03 13:36:06;;;;;;;1.57;1.40;;;26.90;87.20;;;;;;5072736;28;20190;-62
2023/10/03 13:38:34;;;;;;;0.67;0.30;;;26.70;87.80;;;;;;5072367;28;20764;-61
2023/10/03 13:40:59;;;;;;;0.30;0.30;;;26.50;89.50;;;;;;5072785;28;20187;-62
2023/10/03 13:43:27;;;;;;;0.30;0.30;;;26.30;90.50;;;;;;5072642;28;20414;-60
2023/10/03 13:45:54;;;;;;;0.30;0.30;;;25.90;90.80;;;;;;5073002;28;20750;-63
2023/10/03 13:48:20;;;;;;;0.30;0.30;;;25.80;91.50;;;;;;5076471;28;20452;-62
2023/10/03 13:50:46;;;;;;;0.40;0.40;;;25.70;91.30;;;;;;5075896;28;20415;-62
2023/10/03 13:53:15;;;;;;;0.30;0.30;;;25.70;91.40;;;;;;5077026;28;20393;-61
2023/10/03 13:55:41;;;;;;;0.30;0.30;;;25.80;91.70;;;;;;5075628;28;20413;-61
2023/10/03 13:58:06;;;;;;;0.30;0.30;;;25.90;91.50;;;;;;5076113;28;20378;-60
2023/10/03 14:00:35;;;;;;;0.30;0.20;;;26.00;91.70;;;;;;5075567;28;20385;-60
2023/10/03 14:03:06;;;;;;;0.30;0.30;;;26.10;91.40;;;;;;5075861;28;20177;-63
2023/10/03 14:05:35;;;;;;;0.70;0.70;;;26.10;91.20;;;;;;5071107;28;20495;-63
2023/10/03 14:08:04;;;;;;;4.63;1.07;;;26.10;91.40;;;;;;5076137;28;20455;-63
2023/10/03 14:10:30;;;;;;;0.50;0.50;;;26.00;91.20;;;;;;5076275;28;20732;-62
2023/10/03 14:12:56;;;;;;;0.40;0.40;;;26.10;91.20;;;;;;5076753;28;20457;-61
2023/10/03 14:15:22;;;;;;;0.50;0.40;;;26.10;91.10;;;;;;5076046;28;20427;-62
2023/10/03 14:17:48;;;;;;;0.47;0.27;;;26.10;90.80;;;;;;5075832;28;20177;-61
2023/10/03 14:20:15;;;;;;;0.30;0.30;;;26.00;90.80;;;;;;5075962;28;20250;-61
2023/10/03 14:22:42;;;;;;;0.50;0.50;;;25.80;90.60;;;;;;5095270;28;20399;-62
2023/10/03 14:25:14;;;;;;;1.33;0.67;;;25.70;91.10;;;;;;5089543;28;20933;-60
2023/10/03 14:27:42;;;;;;;0.30;0.30;;;25.60;90.30;;;;;;5073987;28;20840;-61
2023/10/03 14:30:09;;;;;;;0.30;0.30;;;25.50;90.40;;;;;;5075379;28;20773;-62
2023/10/03 14:32:37;;;;;;;0.30;0.30;;;25.50;90.20;;;;;;5075462;28;20377;-60
2023/10/03 14:35:03;;;;;;;0.37;0.37;;;25.50;90.20;;;;;;5075128;28;20845;-62
2023/10/03 14:37:29;;;;;;;0.60;0.60;;;25.50;89.80;;;;;;5075300;28;20378;-63
2023/10/03 14:39:55;;;;;;;0.40;0.30;;;25.50;89.90;;;;;;5074793;28;20431;-61
2023/10/03 14:42:21;;;;;;;0.47;0.43;;;25.40;89.40;;;;;;5074801;28;20650;-65
2023/10/03 14:44:47;;;;;;;0.30;0.30;;;25.30;89.50;;;;;;5074403;28;20466;-62
2023/10/03 14:47:12;;;;;;;0.30;0.30;;;25.30;89.70;;;;;;5089947;28;20336;-64
2023/10/03 14:49:38;;;;;;;0.30;0.30;;;25.10;90.10;;;;;;5076179;28;20592;-61
2023/10/03 14:52:05;;;;;;;0.50;0.50;;;25.00;90.00;;;;;;5075052;28;20198;-62
2023/10/03 14:54:33;;;;;;;0.63;0.60;;;24.90;90.30;;;;;;5074499;28;20302;-64
2023/10/03 14:56:59;;;;;;;0.30;0.30;;;24.80;90.30;;;;;;5073760;28;20405;-65
2023/10/03 14:59:25;;;;;;;1.60;1.43;;;24.70;90.30;;;;;;5074576;28;20419;-61
2023/10/03 15:01:53;;;;;;;0.30;0.30;;;24.60;90.20;;;;;;5074288;28;20187;-62
2023/10/03 15:04:19;;;;;;;0.30;0.30;;;24.60;90.60;;;;;;5074195;28;20188;-63
2023/10/03 15:06:46;;;;;;;0.30;0.30;;;24.50;91.00;;;;;;5074449;28;20425;-61
2023/10/03 15:09:11;;;;;;;0.30;0.30;;;24.50;90.80;;;;;;5074418;28;20456;-61
2023/10/03 15:11:37;;;;;;;0.43;0.43;;;24.40;91.20;;;;;;5073879;28;20389;-62
2023/10/03 15:14:04;;;;;;;0.30;0.30;;;24.40;90.90;;;;;;5074414;28;20169;-63
2023/10/03 15:16:32;;;;;;;0.30;0.30;;;24.40;91.20;;;;;;5074864;28;20634;-62
2023/10/03 15:19:06;;;;;;;0.30;0.30;;;24.50;91.40;;;;;;5074125;28;20438;-62
2023/10/03 15:21:34;;;;;;;0.57;0.47;;;24.40;91.50;;;;;;5090446;28;20475;-60
2023/10/03 15:24:00;;;;;;;0.30;0.20;;;24.40;91.60;;;;;;5082111;28;20418;-63
2023/10/03 15:26:26;;;;;;;0.50;0.50;;;24.30;91.90;;;;;;5077185;28;20995;-61
2023/10/03 15:28:52;;;;;;;0.30;0.23;;;24.30;92.10;;;;;;5060083;28;20165;-62
2023/10/03 15:31:25;;;;;;;0.47;0.47;;;24.20;92.10;;;;;;5061161;28;20187;-61
2023/10/03 15:33:52;;;;;;;0.60;0.60;;;24.20;92.00;;;;;;5074160;28;20429;-60
2023/10/03 15:36:19;;;;;;;0.47;0.47;;;24.20;92.30;;;;;;5074025;28;20450;-63
2023/10/03 15:38:46;;;;;;;0.30;0.30;;;24.20;93.70;;;;;;5073361;28;20479;-62
2023/10/03 15:41:14;;;;;;;0.30;0.20;;;24.00;96.50;;;;;;5052719;28;20952;-62
2023/10/03 15:43:41;;;;;;;0.43;0.43;;;23.90;96.80;;;;;;5071900;28;20426;-63
2023/10/03 15:46:06;;;;;;;0.40;0.40;;;23.60;97.10;;;;;;5088296;28;21013;-62
2023/10/03 15:48:32;;;;;;;0.90;0.47;;;23.30;98.10;;;;;;5093463;28;20502;-61
2023/10/03 15:50:58;;;;;;;0.30;0.20;;;23.10;99.90;;;;;;5073074;28;20176;-61
2023/10/03 15:53:26;;;;;;;0.30;0.30;;;22.50;99.90;;;;;;5073884;28;20165;-61
2023/10/03 15:55:55;;;;;;;0.30;0.30;;;21.90;99.90;;;;;;5073064;28;20299;-64
2023/10/03 15:58:23;;;;;;;0.30;0.30;;;21.40;99.90;;;;;;5073680;28;20735;-62
2023/10/03 16:00:51;;;;;;;0.40;0.40;;;20.90;99.90;;;;;;5071772;28;20423;-63
2023/10/03 16:03:17;;;;;;;0.30;0.20;;;20.60;99.90;;;;;;5069596;28;20809;-61
2023/10/03 16:05:43;;;;;;;0.30;0.30;;;20.20;99.90;;;;;;5072039;28;20469;-63
2023/10/03 16:08:08;;;;;;;0.30;0.30;;;19.80;99.90;;;;;;5084777;28;20195;-61
2023/10/03 16:10:37;;;;;;;0.30;0.30;;;19.30;99.90;;;;;;5077132;28;20191;-63
2023/10/03 16:13:05;;;;;;;0.30;0.20;;;19.00;99.90;;;;;;5076078;28;20263;-60
2023/10/03 16:15:32;;;;;;;0.30;0.30;;;18.70;99.90;;;;;;5086856;28;20546;-60
2023/10/03 16:17:57;;;;;;;0.30;0.30;;;18.50;99.90;;;;;;5073222;28;20931;-60
2023/10/03 16:20:23;;;;;;;0.30;0.30;;;18.30;99.90;;;;;;5073767;28;20416;-61
2023/10/03 16:22:50;;;;;;;0.30;0.20;;;18.20;99.90;;;;;;5072982;28;20263;-63
2023/10/03 16:25:20;;;;;;;0.30;0.30;;;18.10;99.90;;;;;;5061721;28;20313;-62
2023/10/03 16:27:46;;;;;;;0.30;0.30;;;18.00;99.90;;;;;;5072436;28;20390;-62
2023/10/03 16:30:12;;;;;;;0.30;0.30;;;17.90;99.90;;;;;;5071567;28;20940;-66
2023/10/03 16:32:38;;;;;;;0.30;0.30;;;17.80;99.90;;;;;;5071805;28;20422;-63
2023/10/03 16:35:07;;;;;;;0.30;0.30;;;17.80;99.90;;;;;;5072545;28;20757;-63
2023/10/03 16:37:33;;;;;;;0.30;0.20;;;17.80;99.90;;;;;;5072430;28;20185;-64
2023/10/03 16:39:58;;;;;;;0.40;0.40;;;17.80;99.90;;;;;;5072594;28;20423;-64
2023/10/03 16:42:24;;;;;;;0.43;0.43;;;17.80;99.90;;;;;;5072784;28;20207;-66
2023/10/03 16:44:50;;;;;;;0.67;0.67;;;17.80;99.90;;;;;;5071620;28;20207;-61
2023/10/03 16:47:16;;;;;;;0.30;0.20;;;17.70;99.90;;;;;;5073537;28;20333;-64
2023/10/03 16:49:42;;;;;;;0.30;0.30;;;17.70;99.90;;;;;;5072775;28;20450;-61
2023/10/03 16:52:08;;;;;;;0.30;0.20;;;17.60;99.90;;;;;;5072539;28;20553;-62
2023/10/03 16:54:33;;;;;;;0.30;0.30;;;17.60;99.90;;;;;;5073432;28;20434;-62
2023/10/03 16:57:01;;;;;;;0.30;0.30;;;17.50;99.90;;;;;;5079341;28;20179;-62
2023/10/03 16:59:28;;;;;;;0.30;0.30;;;17.40;99.90;;;;;;5080489;28;20601;-60
2023/10/03 17:01:53;;;;;;;0.30;0.30;;;17.40;99.90;;;;;;5077237;28;20426;-61
2023/10/03 17:04:19;;;;;;;0.30;0.30;;;17.30;99.90;;;;;;5072896;28;20405;-60